sim
Sign-in with your pilot id or email,
or register
Callsign
Passwort

Schedule Details

Flight Number: RYR5082 (4)
Departure: Paphos International Airport (LCPH) at 18:30
Arrival: Thessaloniki International Airport (LGTS) at 20:35
Route: Ryanair Passenger Schedule. Enter filed route here before submitting Pirep.

Weather Information
Getting current METAR information for LCPH 211100Z 15007KT 120V180 9999 FEW020 FEW030CB 17/09 Q1020
Getting current METAR information for LGTS 211050Z 34016KT CAVOK 16/M01 Q1023 NOSIG

Schedule Frequency

Route Map